sensor_id;sensor_type;location;lat;lon;timestamp;P1;durP1;ratioP1;P2;durP2;ratioP2
70729;SDS011;58315;53.336;55.932;2022-07-25T00:01:07;16.80;;;6.72;;
70729;SDS011;58315;53.336;55.932;2022-07-25T00:03:33;17.17;;;7.55;;
70729;SDS011;58315;53.336;55.932;2022-07-25T00:05:59;20.85;;;7.22;;
70729;SDS011;58315;53.336;55.932;2022-07-25T00:08:25;15.98;;;6.80;;
70729;SDS011;58315;53.336;55.932;2022-07-25T00:10:51;25.50;;;7.75;;
70729;SDS011;58315;53.336;55.932;2022-07-25T00:13:17;35.00;;;7.88;;
70729;SDS011;58315;53.336;55.932;2022-07-25T00:15:43;18.60;;;7.88;;
70729;SDS011;58315;53.336;55.932;2022-07-25T00:18:09;16.75;;;7.47;;
70729;SDS011;58315;53.336;55.932;2022-07-25T00:20:35;22.13;;;8.20;;
70729;SDS011;58315;53.336;55.932;2022-07-25T00:23:01;17.98;;;7.20;;
70729;SDS011;58315;53.336;55.932;2022-07-25T00:25:27;17.73;;;7.70;;
70729;SDS011;58315;53.336;55.932;2022-07-25T00:27:53;23.55;;;8.20;;
70729;SDS011;58315;53.336;55.932;2022-07-25T00:30:19;23.33;;;7.65;;
70729;SDS011;58315;53.336;55.932;2022-07-25T00:32:45;16.95;;;7.78;;
70729;SDS011;58315;53.336;55.932;2022-07-25T00:35:11;23.05;;;8.27;;
70729;SDS011;58315;53.336;55.932;2022-07-25T00:37:37;23.27;;;9.30;;
70729;SDS011;58315;53.336;55.932;2022-07-25T00:40:03;30.63;;;9.07;;
70729;SDS011;58315;53.336;55.932;2022-07-25T00:42:29;17.17;;;7.72;;
70729;SDS011;58315;53.336;55.932;2022-07-25T00:44:55;49.13;;;6.85;;
70729;SDS011;58315;53.336;55.932;2022-07-25T00:47:21;21.23;;;6.28;;
70729;SDS011;58315;53.336;55.932;2022-07-25T00:49:47;21.42;;;7.28;;
70729;SDS011;58315;53.336;55.932;2022-07-25T00:52:13;16.10;;;7.68;;
70729;SDS011;58315;53.336;55.932;2022-07-25T00:54:39;19.02;;;7.38;;
70729;SDS011;58315;53.336;55.932;2022-07-25T00:57:06;21.60;;;7.90;;
70729;SDS011;58315;53.336;55.932;2022-07-25T00:59:32;19.90;;;6.65;;
70729;SDS011;58315;53.336;55.932;2022-07-25T01:01:58;15.43;;;7.28;;
70729;SDS011;58315;53.336;55.932;2022-07-25T01:04:24;17.52;;;7.00;;
70729;SDS011;58315;53.336;55.932;2022-07-25T01:06:50;19.90;;;7.07;;
70729;SDS011;58315;53.336;55.932;2022-07-25T01:09:17;14.93;;;6.70;;
70729;SDS011;58315;53.336;55.932;2022-07-25T01:11:45;22.50;;;7.22;;
70729;SDS011;58315;53.336;55.932;2022-07-25T01:14:11;17.50;;;7.43;;
70729;SDS011;58315;53.336;55.932;2022-07-25T01:16:37;14.75;;;7.78;;
70729;SDS011;58315;53.336;55.932;2022-07-25T01:19:03;18.55;;;7.60;;
70729;SDS011;58315;53.336;55.932;2022-07-25T01:21:28;17.75;;;7.25;;
70729;SDS011;58315;53.336;55.932;2022-07-25T01:23:54;14.15;;;7.15;;
70729;SDS011;58315;53.336;55.932;2022-07-25T01:26:20;20.88;;;7.75;;
70729;SDS011;58315;53.336;55.932;2022-07-25T01:28:46;15.05;;;7.25;;
70729;SDS011;58315;53.336;55.932;2022-07-25T01:31:12;16.45;;;6.78;;
70729;SDS011;58315;53.336;55.932;2022-07-25T01:33:38;16.63;;;7.15;;
70729;SDS011;58315;53.336;55.932;2022-07-25T01:36:04;18.67;;;6.72;;
70729;SDS011;58315;53.336;55.932;2022-07-25T01:38:30;26.63;;;7.10;;
70729;SDS011;58315;53.336;55.932;2022-07-25T01:40:56;33.70;;;7.60;;
70729;SDS011;58315;53.336;55.932;2022-07-25T01:43:22;16.17;;;7.15;;
70729;SDS011;58315;53.336;55.932;2022-07-25T01:45:48;18.10;;;7.13;;
70729;SDS011;58315;53.336;55.932;2022-07-25T01:48:14;15.40;;;7.82;;
70729;SDS011;58315;53.336;55.932;2022-07-25T01:50:40;23.85;;;10.82;;
70729;SDS011;58315;53.336;55.932;2022-07-25T01:53:06;21.15;;;8.10;;
70729;SDS011;58315;53.336;55.932;2022-07-25T01:55:32;27.17;;;8.10;;
70729;SDS011;58315;53.336;55.932;2022-07-25T01:57:58;16.10;;;7.13;;
70729;SDS011;58315;53.336;55.932;2022-07-25T02:00:24;18.85;;;7.47;;
70729;SDS011;58315;53.336;55.932;2022-07-25T02:02:50;17.13;;;6.90;;
70729;SDS011;58315;53.336;55.932;2022-07-25T02:05:36;13.90;;;6.68;;
70729;SDS011;58315;53.336;55.932;2022-07-25T02:08:02;20.70;;;7.18;;
70729;SDS011;58315;53.336;55.932;2022-07-25T02:10:28;11.57;;;6.90;;
70729;SDS011;58315;53.336;55.932;2022-07-25T02:12:54;15.18;;;6.70;;
70729;SDS011;58315;53.336;55.932;2022-07-25T02:15:40;16.90;;;6.13;;
70729;SDS011;58315;53.336;55.932;2022-07-25T02:18:06;20.35;;;6.95;;
70729;SDS011;58315;53.336;55.932;2022-07-25T02:20:32;15.38;;;7.30;;
70729;SDS011;58315;53.336;55.932;2022-07-25T02:22:58;13.85;;;7.40;;
70729;SDS011;58315;53.336;55.932;2022-07-25T02:25:24;21.40;;;8.35;;
70729;SDS011;58315;53.336;55.932;2022-07-25T02:27:50;23.13;;;7.95;;
70729;SDS011;58315;53.336;55.932;2022-07-25T02:30:16;27.55;;;11.25;;
70729;SDS011;58315;53.336;55.932;2022-07-25T02:32:42;19.15;;;8.02;;
70729;SDS011;58315;53.336;55.932;2022-07-25T02:35:08;16.67;;;8.30;;
70729;SDS011;58315;53.336;55.932;2022-07-25T02:37:35;17.60;;;6.93;;
70729;SDS011;58315;53.336;55.932;2022-07-25T02:40:00;12.65;;;6.75;;
70729;SDS011;58315;53.336;55.932;2022-07-25T02:42:26;11.63;;;6.55;;
70729;SDS011;58315;53.336;55.932;2022-07-25T02:44:52;14.10;;;6.43;;
70729;SDS011;58315;53.336;55.932;2022-07-25T02:47:18;11.90;;;6.53;;
70729;SDS011;58315;53.336;55.932;2022-07-25T02:49:44;14.60;;;6.60;;
70729;SDS011;58315;53.336;55.932;2022-07-25T02:52:10;13.95;;;7.20;;
70729;SDS011;58315;53.336;55.932;2022-07-25T02:54:36;16.63;;;7.00;;
70729;SDS011;58315;53.336;55.932;2022-07-25T02:57:02;18.48;;;6.93;;
70729;SDS011;58315;53.336;55.932;2022-07-25T02:59:28;15.15;;;6.18;;
70729;SDS011;58315;53.336;55.932;2022-07-25T03:01:54;14.65;;;7.47;;
70729;SDS011;58315;53.336;55.932;2022-07-25T03:04:20;17.33;;;7.40;;
70729;SDS011;58315;53.336;55.932;2022-07-25T03:06:47;16.02;;;6.22;;
70729;SDS011;58315;53.336;55.932;2022-07-25T03:09:13;22.52;;;9.23;;
70729;SDS011;58315;53.336;55.932;2022-07-25T03:11:38;29.15;;;9.13;;
70729;SDS011;58315;53.336;55.932;2022-07-25T03:14:06;16.48;;;8.95;;
70729;SDS011;58315;53.336;55.932;2022-07-25T03:16:32;21.40;;;9.20;;
70729;SDS011;58315;53.336;55.932;2022-07-25T03:18:58;24.02;;;10.55;;
70729;SDS011;58315;53.336;55.932;2022-07-25T03:21:25;47.30;;;12.93;;
70729;SDS011;58315;53.336;55.932;2022-07-25T03:23:51;34.35;;;9.40;;
70729;SDS011;58315;53.336;55.932;2022-07-25T03:26:16;31.83;;;10.68;;
70729;SDS011;58315;53.336;55.932;2022-07-25T03:28:42;31.20;;;11.75;;
70729;SDS011;58315;53.336;55.932;2022-07-25T03:31:08;30.67;;;9.75;;
70729;SDS011;58315;53.336;55.932;2022-07-25T03:33:34;16.13;;;7.88;;
70729;SDS011;58315;53.336;55.932;2022-07-25T03:36:01;17.40;;;8.50;;
70729;SDS011;58315;53.336;55.932;2022-07-25T03:38:28;11.85;;;8.13;;
70729;SDS011;58315;53.336;55.932;2022-07-25T03:40:54;20.55;;;8.40;;
70729;SDS011;58315;53.336;55.932;2022-07-25T03:43:20;13.25;;;8.18;;
70729;SDS011;58315;53.336;55.932;2022-07-25T03:45:46;18.63;;;8.80;;
70729;SDS011;58315;53.336;55.932;2022-07-25T03:48:12;16.02;;;8.50;;
70729;SDS011;58315;53.336;55.932;2022-07-25T03:50:37;17.45;;;8.68;;
70729;SDS011;58315;53.336;55.932;2022-07-25T03:53:03;17.00;;;8.63;;
70729;SDS011;58315;53.336;55.932;2022-07-25T03:55:29;15.70;;;9.05;;
70729;SDS011;58315;53.336;55.932;2022-07-25T03:57:55;14.32;;;8.05;;
70729;SDS011;58315;53.336;55.932;2022-07-25T04:00:21;30.98;;;9.60;;
70729;SDS011;58315;53.336;55.932;2022-07-25T04:02:47;18.23;;;8.55;;
70729;SDS011;58315;53.336;55.932;2022-07-25T04:05:13;25.42;;;11.52;;
70729;SDS011;58315;53.336;55.932;2022-07-25T04:07:39;21.63;;;10.13;;
70729;SDS011;58315;53.336;55.932;2022-07-25T04:10:05;24.23;;;12.43;;
70729;SDS011;58315;53.336;55.932;2022-07-25T04:12:32;34.38;;;11.40;;
70729;SDS011;58315;53.336;55.932;2022-07-25T04:14:58;33.90;;;10.00;;
70729;SDS011;58315;53.336;55.932;2022-07-25T04:17:24;23.95;;;10.25;;
70729;SDS011;58315;53.336;55.932;2022-07-25T04:19:50;26.75;;;10.35;;
70729;SDS011;58315;53.336;55.932;2022-07-25T04:22:16;25.17;;;10.80;;
70729;SDS011;58315;53.336;55.932;2022-07-25T04:24:42;24.40;;;11.30;;
70729;SDS011;58315;53.336;55.932;2022-07-25T04:27:08;26.83;;;10.82;;
70729;SDS011;58315;53.336;55.932;2022-07-25T04:29:34;19.88;;;10.60;;
70729;SDS011;58315;53.336;55.932;2022-07-25T04:32:00;23.27;;;9.93;;
70729;SDS011;58315;53.336;55.932;2022-07-25T04:34:26;23.58;;;10.20;;
70729;SDS011;58315;53.336;55.932;2022-07-25T04:36:51;20.65;;;10.52;;
70729;SDS011;58315;53.336;55.932;2022-07-25T04:39:18;18.60;;;9.60;;
70729;SDS011;58315;53.336;55.932;2022-07-25T04:41:44;25.55;;;9.52;;
70729;SDS011;58315;53.336;55.932;2022-07-25T04:44:10;29.15;;;9.13;;
70729;SDS011;58315;53.336;55.932;2022-07-25T04:46:36;38.22;;;9.27;;
70729;SDS011;58315;53.336;55.932;2022-07-25T04:49:02;22.88;;;9.35;;
70729;SDS011;58315;53.336;55.932;2022-07-25T04:51:28;26.48;;;10.45;;
70729;SDS011;58315;53.336;55.932;2022-07-25T04:53:54;21.75;;;9.50;;
70729;SDS011;58315;53.336;55.932;2022-07-25T04:56:20;28.30;;;9.65;;
70729;SDS011;58315;53.336;55.932;2022-07-25T04:58:46;19.50;;;9.40;;
70729;SDS011;58315;53.336;55.932;2022-07-25T05:01:12;24.05;;;9.43;;
70729;SDS011;58315;53.336;55.932;2022-07-25T05:03:38;22.73;;;9.40;;
70729;SDS011;58315;53.336;55.932;2022-07-25T05:06:04;17.98;;;9.85;;
70729;SDS011;58315;53.336;55.932;2022-07-25T05:08:30;17.00;;;9.25;;
70729;SDS011;58315;53.336;55.932;2022-07-25T05:10:56;20.88;;;9.38;;
70729;SDS011;58315;53.336;55.932;2022-07-25T05:13:21;24.20;;;8.95;;
70729;SDS011;58315;53.336;55.932;2022-07-25T05:15:47;17.13;;;9.05;;
70729;SDS011;58315;53.336;55.932;2022-07-25T05:18:14;21.52;;;8.75;;
70729;SDS011;58315;53.336;55.932;2022-07-25T05:20:40;20.63;;;10.05;;
70729;SDS011;58315;53.336;55.932;2022-07-25T05:23:06;14.30;;;9.00;;
70729;SDS011;58315;53.336;55.932;2022-07-25T05:25:31;15.77;;;9.10;;
70729;SDS011;58315;53.336;55.932;2022-07-25T05:27:57;17.58;;;9.77;;
70729;SDS011;58315;53.336;55.932;2022-07-25T05:30:24;18.83;;;8.77;;
70729;SDS011;58315;53.336;55.932;2022-07-25T05:32:50;26.98;;;8.65;;
70729;SDS011;58315;53.336;55.932;2022-07-25T05:35:16;29.30;;;8.80;;
70729;SDS011;58315;53.336;55.932;2022-07-25T05:37:41;15.60;;;8.68;;
70729;SDS011;58315;53.336;55.932;2022-07-25T05:40:07;21.08;;;9.43;;
70729;SDS011;58315;53.336;55.932;2022-07-25T05:42:34;18.75;;;9.13;;
70729;SDS011;58315;53.336;55.932;2022-07-25T05:45:00;23.52;;;9.77;;
70729;SDS011;58315;53.336;55.932;2022-07-25T05:47:26;18.88;;;9.43;;
70729;SDS011;58315;53.336;55.932;2022-07-25T05:49:52;46.55;;;10.98;;
70729;SDS011;58315;53.336;55.932;2022-07-25T05:52:19;29.25;;;9.93;;
70729;SDS011;58315;53.336;55.932;2022-07-25T05:54:45;27.70;;;11.55;;
70729;SDS011;58315;53.336;55.932;2022-07-25T05:57:11;36.10;;;10.98;;
70729;SDS011;58315;53.336;55.932;2022-07-25T05:59:37;37.28;;;11.43;;
70729;SDS011;58315;53.336;55.932;2022-07-25T06:02:03;36.00;;;11.45;;
70729;SDS011;58315;53.336;55.932;2022-07-25T06:04:30;24.77;;;11.38;;
70729;SDS011;58315;53.336;55.932;2022-07-25T06:06:56;30.83;;;11.13;;
70729;SDS011;58315;53.336;55.932;2022-07-25T06:09:22;25.67;;;11.18;;
70729;SDS011;58315;53.336;55.932;2022-07-25T06:11:48;32.33;;;10.63;;
70729;SDS011;58315;53.336;55.932;2022-07-25T06:14:15;39.80;;;11.38;;
70729;SDS011;58315;53.336;55.932;2022-07-25T06:16:41;29.38;;;10.43;;
70729;SDS011;58315;53.336;55.932;2022-07-25T06:19:07;17.77;;;9.48;;
70729;SDS011;58315;53.336;55.932;2022-07-25T06:21:34;28.58;;;10.20;;
70729;SDS011;58315;53.336;55.932;2022-07-25T06:24:00;20.92;;;9.00;;
70729;SDS011;58315;53.336;55.932;2022-07-25T06:26:27;14.30;;;8.32;;
70729;SDS011;58315;53.336;55.932;2022-07-25T06:28:52;21.25;;;8.52;;
70729;SDS011;58315;53.336;55.932;2022-07-25T06:31:19;14.35;;;9.07;;
70729;SDS011;58315;53.336;55.932;2022-07-25T06:33:45;17.55;;;8.75;;
70729;SDS011;58315;53.336;55.932;2022-07-25T06:36:11;21.30;;;8.52;;
70729;SDS011;58315;53.336;55.932;2022-07-25T06:38:37;18.75;;;8.15;;
70729;SDS011;58315;53.336;55.932;2022-07-25T06:41:03;19.52;;;8.30;;
70729;SDS011;58315;53.336;55.932;2022-07-25T06:43:29;27.60;;;7.50;;
70729;SDS011;58315;53.336;55.932;2022-07-25T06:45:55;33.33;;;6.97;;
70729;SDS011;58315;53.336;55.932;2022-07-25T06:48:21;11.50;;;5.88;;
70729;SDS011;58315;53.336;55.932;2022-07-25T06:50:49;14.98;;;6.47;;
70729;SDS011;58315;53.336;55.932;2022-07-25T06:53:16;14.15;;;6.93;;
70729;SDS011;58315;53.336;55.932;2022-07-25T06:55:42;14.95;;;6.30;;
70729;SDS011;58315;53.336;55.932;2022-07-25T06:58:10;13.60;;;6.78;;
70729;SDS011;58315;53.336;55.932;2022-07-25T07:00:36;15.27;;;5.20;;
70729;SDS011;58315;53.336;55.932;2022-07-25T07:03:02;8.32;;;4.80;;
70729;SDS011;58315;53.336;55.932;2022-07-25T07:05:29;8.43;;;4.45;;
70729;SDS011;58315;53.336;55.932;2022-07-25T07:07:57;15.40;;;5.28;;
70729;SDS011;58315;53.336;55.932;2022-07-25T07:10:24;11.02;;;4.40;;
70729;SDS011;58315;53.336;55.932;2022-07-25T07:13:00;21.88;;;6.63;;
70729;SDS011;58315;53.336;55.932;2022-07-25T07:15:35;13.55;;;4.00;;
70729;SDS011;58315;53.336;55.932;2022-07-25T07:18:01;8.80;;;4.00;;
70729;SDS011;58315;53.336;55.932;2022-07-25T07:20:30;13.00;;;3.88;;
70729;SDS011;58315;53.336;55.932;2022-07-25T07:22:56;15.75;;;4.10;;
70729;SDS011;58315;53.336;55.932;2022-07-25T07:25:22;7.97;;;3.53;;
70729;SDS011;58315;53.336;55.932;2022-07-25T07:27:49;9.77;;;4.15;;
70729;SDS011;58315;53.336;55.932;2022-07-25T07:30:16;13.73;;;3.63;;
70729;SDS011;58315;53.336;55.932;2022-07-25T07:32:42;9.45;;;3.30;;
70729;SDS011;58315;53.336;55.932;2022-07-25T07:35:08;9.15;;;3.88;;
70729;SDS011;58315;53.336;55.932;2022-07-25T07:37:35;8.95;;;3.53;;
70729;SDS011;58315;53.336;55.932;2022-07-25T07:40:02;9.45;;;3.42;;
70729;SDS011;58315;53.336;55.932;2022-07-25T07:42:39;20.33;;;3.92;;
70729;SDS011;58315;53.336;55.932;2022-07-25T07:45:13;14.23;;;3.70;;
70729;SDS011;58315;53.336;55.932;2022-07-25T07:47:45;8.07;;;3.15;;
70729;SDS011;58315;53.336;55.932;2022-07-25T07:50:13;7.63;;;3.30;;
70729;SDS011;58315;53.336;55.932;2022-07-25T07:52:41;13.18;;;3.30;;
70729;SDS011;58315;53.336;55.932;2022-07-25T07:55:08;8.45;;;3.63;;
70729;SDS011;58315;53.336;55.932;2022-07-25T07:58:04;8.88;;;3.55;;
70729;SDS011;58315;53.336;55.932;2022-07-25T08:00:31;11.23;;;3.70;;
70729;SDS011;58315;53.336;55.932;2022-07-25T08:03:01;8.18;;;3.60;;
70729;SDS011;58315;53.336;55.932;2022-07-25T08:05:33;9.35;;;3.63;;
70729;SDS011;58315;53.336;55.932;2022-07-25T08:08:03;6.43;;;3.30;;
70729;SDS011;58315;53.336;55.932;2022-07-25T08:10:31;8.93;;;3.35;;
70729;SDS011;58315;53.336;55.932;2022-07-25T08:12:59;35.90;;;3.90;;
70729;SDS011;58315;53.336;55.932;2022-07-25T08:15:25;7.90;;;3.70;;
70729;SDS011;58315;53.336;55.932;2022-07-25T08:17:51;9.90;;;3.58;;
70729;SDS011;58315;53.336;55.932;2022-07-25T08:20:17;8.38;;;4.03;;
70729;SDS011;58315;53.336;55.932;2022-07-25T08:22:46;9.70;;;4.07;;
70729;SDS011;58315;53.336;55.932;2022-07-25T08:25:15;6.13;;;3.38;;
70729;SDS011;58315;53.336;55.932;2022-07-25T08:27:44;10.43;;;3.60;;
70729;SDS011;58315;53.336;55.932;2022-07-25T08:30:11;7.93;;;3.20;;
70729;SDS011;58315;53.336;55.932;2022-07-25T08:32:45;10.18;;;3.63;;
70729;SDS011;58315;53.336;55.932;2022-07-25T08:35:18;7.28;;;3.60;;
70729;SDS011;58315;53.336;55.932;2022-07-25T08:37:46;9.05;;;3.28;;
70729;SDS011;58315;53.336;55.932;2022-07-25T08:40:14;12.32;;;3.75;;
70729;SDS011;58315;53.336;55.932;2022-07-25T08:42:41;13.43;;;3.15;;
70729;SDS011;58315;53.336;55.932;2022-07-25T08:45:08;6.90;;;2.90;;
70729;SDS011;58315;53.336;55.932;2022-07-25T08:47:38;7.85;;;3.33;;
70729;SDS011;58315;53.336;55.932;2022-07-25T08:50:10;9.30;;;3.60;;
70729;SDS011;58315;53.336;55.932;2022-07-25T08:52:37;6.93;;;3.25;;
70729;SDS011;58315;53.336;55.932;2022-07-25T08:55:08;5.80;;;2.72;;
70729;SDS011;58315;53.336;55.932;2022-07-25T08:57:36;11.93;;;3.17;;
70729;SDS011;58315;53.336;55.932;2022-07-25T09:00:06;3.47;;;2.67;;
70729;SDS011;58315;53.336;55.932;2022-07-25T09:02:33;13.07;;;3.53;;
70729;SDS011;58315;53.336;55.932;2022-07-25T09:04:58;7.35;;;2.58;;
70729;SDS011;58315;53.336;55.932;2022-07-25T09:07:31;10.55;;;3.20;;
70729;SDS011;58315;53.336;55.932;2022-07-25T09:10:13;5.45;;;2.40;;
70729;SDS011;58315;53.336;55.932;2022-07-25T09:12:41;5.05;;;2.47;;
70729;SDS011;58315;53.336;55.932;2022-07-25T09:17:50;7.30;;;2.50;;
70729;SDS011;58315;53.336;55.932;2022-07-25T09:20:20;9.52;;;2.67;;
70729;SDS011;58315;53.336;55.932;2022-07-25T09:22:47;5.38;;;2.70;;
70729;SDS011;58315;53.336;55.932;2022-07-25T09:25:23;16.65;;;2.75;;
70729;SDS011;58315;53.336;55.932;2022-07-25T09:27:51;5.13;;;2.55;;
70729;SDS011;58315;53.336;55.932;2022-07-25T09:30:17;6.53;;;2.20;;
70729;SDS011;58315;53.336;55.932;2022-07-25T09:32:44;7.00;;;2.53;;
70729;SDS011;58315;53.336;55.932;2022-07-25T09:35:10;17.15;;;3.33;;
70729;SDS011;58315;53.336;55.932;2022-07-25T09:37:37;5.20;;;1.90;;
70729;SDS011;58315;53.336;55.932;2022-07-25T09:40:10;2.88;;;1.70;;
70729;SDS011;58315;53.336;55.932;2022-07-25T09:42:39;9.73;;;2.00;;
70729;SDS011;58315;53.336;55.932;2022-07-25T09:45:08;7.85;;;1.77;;
70729;SDS011;58315;53.336;55.932;2022-07-25T09:50:23;7.70;;;2.65;;
70729;SDS011;58315;53.336;55.932;2022-07-25T09:52:54;3.67;;;2.25;;
70729;SDS011;58315;53.336;55.932;2022-07-25T09:55:21;3.35;;;1.90;;
70729;SDS011;58315;53.336;55.932;2022-07-25T09:57:48;5.57;;;2.08;;
70729;SDS011;58315;53.336;55.932;2022-07-25T10:00:18;5.38;;;2.38;;
70729;SDS011;58315;53.336;55.932;2022-07-25T10:05:24;4.20;;;2.20;;
70729;SDS011;58315;53.336;55.932;2022-07-25T10:07:53;8.70;;;1.65;;
70729;SDS011;58315;53.336;55.932;2022-07-25T10:10:28;4.10;;;1.70;;
70729;SDS011;58315;53.336;55.932;2022-07-25T10:13:01;5.82;;;1.60;;
70729;SDS011;58315;53.336;55.932;2022-07-25T10:15:43;6.53;;;1.70;;
70729;SDS011;58315;53.336;55.932;2022-07-25T10:18:09;6.03;;;1.50;;
70729;SDS011;58315;53.336;55.932;2022-07-25T10:20:37;3.13;;;1.52;;
70729;SDS011;58315;53.336;55.932;2022-07-25T10:23:03;7.32;;;2.20;;
70729;SDS011;58315;53.336;55.932;2022-07-25T10:25:29;6.20;;;1.85;;
70729;SDS011;58315;53.336;55.932;2022-07-25T10:27:59;5.90;;;1.80;;
70729;SDS011;58315;53.336;55.932;2022-07-25T10:30:38;6.18;;;1.58;;
70729;SDS011;58315;53.336;55.932;2022-07-25T10:35:38;6.05;;;1.80;;
70729;SDS011;58315;53.336;55.932;2022-07-25T10:38:04;5.20;;;1.90;;
70729;SDS011;58315;53.336;55.932;2022-07-25T10:40:32;5.40;;;2.17;;
70729;SDS011;58315;53.336;55.932;2022-07-25T10:43:08;5.18;;;1.98;;
70729;SDS011;58315;53.336;55.932;2022-07-25T10:45:38;4.15;;;1.90;;
70729;SDS011;58315;53.336;55.932;2022-07-25T10:48:07;8.13;;;1.50;;
70729;SDS011;58315;53.336;55.932;2022-07-25T10:50:34;4.07;;;1.63;;
70729;SDS011;58315;53.336;55.932;2022-07-25T10:53:11;2.67;;;1.17;;
70729;SDS011;58315;53.336;55.932;2022-07-25T10:55:37;7.40;;;1.45;;
70729;SDS011;58315;53.336;55.932;2022-07-25T10:58:04;1.92;;;1.35;;
70729;SDS011;58315;53.336;55.932;2022-07-25T11:00:31;1.83;;;1.10;;
70729;SDS011;58315;53.336;55.932;2022-07-25T11:02:58;1.98;;;1.30;;
70729;SDS011;58315;53.336;55.932;2022-07-25T11:05:25;2.65;;;1.20;;
70729;SDS011;58315;53.336;55.932;2022-07-25T11:07:51;3.60;;;1.30;;
70729;SDS011;58315;53.336;55.932;2022-07-25T11:10:24;4.00;;;1.58;;
70729;SDS011;58315;53.336;55.932;2022-07-25T11:12:53;3.28;;;1.33;;
70729;SDS011;58315;53.336;55.932;2022-07-25T11:17:48;3.70;;;1.20;;
70729;SDS011;58315;53.336;55.932;2022-07-25T11:20:19;1.90;;;1.00;;
70729;SDS011;58315;53.336;55.932;2022-07-25T11:22:51;4.93;;;1.20;;
70729;SDS011;58315;53.336;55.932;2022-07-25T11:25:19;3.35;;;1.15;;
70729;SDS011;58315;53.336;55.932;2022-07-25T11:27:56;9.55;;;1.60;;
70729;SDS011;58315;53.336;55.932;2022-07-25T11:30:24;8.35;;;1.95;;
70729;SDS011;58315;53.336;55.932;2022-07-25T11:32:54;6.78;;;1.08;;
70729;SDS011;58315;53.336;55.932;2022-07-25T11:35:24;10.38;;;1.50;;
70729;SDS011;58315;53.336;55.932;2022-07-25T11:37:53;5.13;;;1.40;;
70729;SDS011;58315;53.336;55.932;2022-07-25T11:40:20;6.10;;;1.40;;
70729;SDS011;58315;53.336;55.932;2022-07-25T11:42:51;7.80;;;1.40;;
70729;SDS011;58315;53.336;55.932;2022-07-25T11:47:49;1.90;;;1.13;;
70729;SDS011;58315;53.336;55.932;2022-07-25T11:50:36;7.93;;;1.60;;
70729;SDS011;58315;53.336;55.932;2022-07-25T11:53:04;1.50;;;1.00;;
70729;SDS011;58315;53.336;55.932;2022-07-25T11:55:34;3.10;;;1.13;;
70729;SDS011;58315;53.336;55.932;2022-07-25T11:58:02;4.40;;;1.30;;
70729;SDS011;58315;53.336;55.932;2022-07-25T12:00:29;4.10;;;1.23;;
70729;SDS011;58315;53.336;55.932;2022-07-25T12:03:11;2.83;;;1.30;;
70729;SDS011;58315;53.336;55.932;2022-07-25T12:05:41;4.65;;;1.48;;
70729;SDS011;58315;53.336;55.932;2022-07-25T12:08:09;10.15;;;1.70;;
70729;SDS011;58315;53.336;55.932;2022-07-25T12:10:43;7.97;;;1.08;;
70729;SDS011;58315;53.336;55.932;2022-07-25T12:13:25;40.80;;;14.63;;
70729;SDS011;58315;53.336;55.932;2022-07-25T12:15:54;2.97;;;1.50;;
70729;SDS011;58315;53.336;55.932;2022-07-25T12:18:20;5.22;;;1.30;;
70729;SDS011;58315;53.336;55.932;2022-07-25T12:20:46;4.47;;;1.23;;
70729;SDS011;58315;53.336;55.932;2022-07-25T12:23:12;2.78;;;1.63;;
70729;SDS011;58315;53.336;55.932;2022-07-25T12:25:42;4.43;;;1.50;;
70729;SDS011;58315;53.336;55.932;2022-07-25T12:28:10;2.60;;;1.40;;
70729;SDS011;58315;53.336;55.932;2022-07-25T12:30:37;3.90;;;1.45;;
70729;SDS011;58315;53.336;55.932;2022-07-25T12:33:04;2.15;;;1.10;;
70729;SDS011;58315;53.336;55.932;2022-07-25T12:35:31;4.28;;;1.33;;
70729;SDS011;58315;53.336;55.932;2022-07-25T12:37:57;2.83;;;1.25;;
70729;SDS011;58315;53.336;55.932;2022-07-25T12:40:23;6.18;;;1.20;;
70729;SDS011;58315;53.336;55.932;2022-07-25T12:42:49;18.25;;;5.57;;
70729;SDS011;58315;53.336;55.932;2022-07-25T12:45:16;9.85;;;1.70;;
70729;SDS011;58315;53.336;55.932;2022-07-25T12:47:42;8.38;;;2.55;;
70729;SDS011;58315;53.336;55.932;2022-07-25T12:50:09;5.72;;;1.80;;
70729;SDS011;58315;53.336;55.932;2022-07-25T12:52:35;12.35;;;2.00;;
70729;SDS011;58315;53.336;55.932;2022-07-25T12:55:03;4.43;;;1.38;;
70729;SDS011;58315;53.336;55.932;2022-07-25T12:57:31;7.13;;;1.38;;
70729;SDS011;58315;53.336;55.932;2022-07-25T12:59:57;5.38;;;1.30;;
70729;SDS011;58315;53.336;55.932;2022-07-25T13:02:23;5.50;;;1.48;;
70729;SDS011;58315;53.336;55.932;2022-07-25T13:04:49;5.15;;;1.20;;
70729;SDS011;58315;53.336;55.932;2022-07-25T13:07:15;15.93;;;1.80;;
70729;SDS011;58315;53.336;55.932;2022-07-25T13:09:41;1.92;;;1.30;;
70729;SDS011;58315;53.336;55.932;2022-07-25T13:12:07;5.05;;;1.20;;
70729;SDS011;58315;53.336;55.932;2022-07-25T13:14:33;6.18;;;1.60;;
70729;SDS011;58315;53.336;55.932;2022-07-25T13:16:59;8.40;;;1.52;;
70729;SDS011;58315;53.336;55.932;2022-07-25T13:19:25;2.40;;;1.40;;
70729;SDS011;58315;53.336;55.932;2022-07-25T13:21:52;4.45;;;1.50;;
70729;SDS011;58315;53.336;55.932;2022-07-25T13:24:17;4.97;;;1.40;;
70729;SDS011;58315;53.336;55.932;2022-07-25T13:26:43;5.35;;;1.63;;
70729;SDS011;58315;53.336;55.932;2022-07-25T13:29:09;12.40;;;2.22;;
70729;SDS011;58315;53.336;55.932;2022-07-25T13:31:38;6.72;;;1.33;;
70729;SDS011;58315;53.336;55.932;2022-07-25T13:34:05;4.78;;;1.30;;
70729;SDS011;58315;53.336;55.932;2022-07-25T13:36:33;2.60;;;1.50;;
70729;SDS011;58315;53.336;55.932;2022-07-25T13:39:02;4.03;;;1.48;;
70729;SDS011;58315;53.336;55.932;2022-07-25T13:41:28;6.22;;;1.58;;
70729;SDS011;58315;53.336;55.932;2022-07-25T13:43:54;6.57;;;1.40;;
70729;SDS011;58315;53.336;55.932;2022-07-25T13:46:21;14.32;;;1.38;;
70729;SDS011;58315;53.336;55.932;2022-07-25T13:48:46;7.78;;;2.30;;
70729;SDS011;58315;53.336;55.932;2022-07-25T13:51:12;50.42;;;2.63;;
70729;SDS011;58315;53.336;55.932;2022-07-25T13:53:39;2.85;;;1.23;;
70729;SDS011;58315;53.336;55.932;2022-07-25T13:56:05;13.60;;;1.98;;
70729;SDS011;58315;53.336;55.932;2022-07-25T13:58:31;3.72;;;1.58;;
70729;SDS011;58315;53.336;55.932;2022-07-25T14:00:57;7.30;;;1.40;;
70729;SDS011;58315;53.336;55.932;2022-07-25T14:03:23;6.43;;;1.40;;
70729;SDS011;58315;53.336;55.932;2022-07-25T14:05:49;3.15;;;1.70;;
70729;SDS011;58315;53.336;55.932;2022-07-25T14:08:16;3.47;;;1.30;;
70729;SDS011;58315;53.336;55.932;2022-07-25T14:10:42;13.00;;;2.00;;
70729;SDS011;58315;53.336;55.932;2022-07-25T14:13:08;5.88;;;1.48;;
70729;SDS011;58315;53.336;55.932;2022-07-25T14:15:34;3.72;;;1.67;;
70729;SDS011;58315;53.336;55.932;2022-07-25T14:18:00;4.32;;;1.70;;
70729;SDS011;58315;53.336;55.932;2022-07-25T14:20:27;10.32;;;1.88;;
70729;SDS011;58315;53.336;55.932;2022-07-25T14:22:53;4.25;;;1.55;;
70729;SDS011;58315;53.336;55.932;2022-07-25T14:25:18;4.32;;;1.60;;
70729;SDS011;58315;53.336;55.932;2022-07-25T14:27:45;3.70;;;1.83;;
70729;SDS011;58315;53.336;55.932;2022-07-25T14:30:11;6.13;;;1.65;;
70729;SDS011;58315;53.336;55.932;2022-07-25T14:32:37;4.78;;;1.45;;
70729;SDS011;58315;53.336;55.932;2022-07-25T14:35:03;5.25;;;1.58;;
70729;SDS011;58315;53.336;55.932;2022-07-25T14:37:30;4.47;;;1.40;;
70729;SDS011;58315;53.336;55.932;2022-07-25T14:39:58;12.35;;;2.25;;
70729;SDS011;58315;53.336;55.932;2022-07-25T14:42:24;16.33;;;6.50;;